createdAt,value
2022-08-19T00:01:07.909Z,69.13
2022-08-19T00:03:50.741Z,68.46
2022-08-19T00:06:40.687Z,69.16
2022-08-19T00:09:37.576Z,69.87
2022-08-19T00:12:32.691Z,69.84
2022-08-19T00:15:18.301Z,69.49
2022-08-19T00:18:06.595Z,70.47
2022-08-19T00:20:56.196Z,71.14
2022-08-19T00:23:38.574Z,70.79
2022-08-19T00:26:27.835Z,70.77
2022-08-19T00:29:11.786Z,71.18
2022-08-19T00:31:58.836Z,71.95
2022-08-19T00:34:47.913Z,72.10
2022-08-19T00:37:37.045Z,71.72
2022-08-19T00:40:20.865Z,71.35
2022-08-19T00:43:09.196Z,71.35
2022-08-19T00:45:51.573Z,71.25
2022-08-19T00:48:42.971Z,70.95
2022-08-19T00:51:25.586Z,71.57
2022-08-19T00:54:14.213Z,71.88
2022-08-19T00:56:58.868Z,71.23
2022-08-19T01:00:00.781Z,72.38
2022-08-19T01:02:50.633Z,72.52
2022-08-19T01:05:39.903Z,72.33
2022-08-19T01:08:24.932Z,71.82
2022-08-19T01:11:20.532Z,70.98
2022-08-19T01:14:08.619Z,71.41
2022-08-19T01:16:51.934Z,71.28
2022-08-19T01:19:44.873Z,71.91
2022-08-19T01:22:33.856Z,71.61
2022-08-19T01:25:27.685Z,70.98
2022-08-19T01:28:18.688Z,71.24
2022-08-19T01:31:27.839Z,70.15
2022-08-19T01:34:11.945Z,70.82
2022-08-19T01:37:00.086Z,71.55
2022-08-19T01:39:41.556Z,71.14
2022-08-19T01:42:30.723Z,71.53
2022-08-19T01:45:13.676Z,72.00
2022-08-19T01:48:02.853Z,72.28
2022-08-19T01:50:46.580Z,72.14
2022-08-19T01:53:30.500Z,71.50
2022-08-19T01:56:23.699Z,73.19
2022-08-19T01:59:17.591Z,72.95
2022-08-19T02:02:06.721Z,71.55
2022-08-19T02:04:49.021Z,70.45
2022-08-19T09:03:18.910Z,50.38
2022-08-19T09:06:25.880Z,50.79
2022-08-19T09:09:23.506Z,48.66
2022-08-19T09:13:10.794Z,50.01
2022-08-19T09:16:25.612Z,48.52
2022-08-19T09:19:22.227Z,48.42
2022-08-19T09:22:08.679Z,48.81
2022-08-19T09:25:01.952Z,49.50
2022-08-19T09:27:46.269Z,48.13
2022-08-19T09:30:52.995Z,48.69
2022-08-19T09:33:35.099Z,48.66
2022-08-19T09:36:34.757Z,51.02
2022-08-19T09:39:17.108Z,50.12
2022-08-19T09:42:05.827Z,50.92
2022-08-19T09:45:10.175Z,50.07
2022-08-19T09:47:52.959Z,49.03
2022-08-19T09:50:51.927Z,48.70
2022-08-19T09:53:35.898Z,50.53
2022-08-19T09:56:21.636Z,50.18
2022-08-19T09:59:10.913Z,49.80
2022-08-19T10:01:53.624Z,50.42
2022-08-19T10:05:02.097Z,50.12
2022-08-19T10:07:56.950Z,49.84
2022-08-19T10:10:46.724Z,51.52
2022-08-19T10:13:31.124Z,51.13
2022-08-19T10:16:31.025Z,51.41
2022-08-19T10:19:13.096Z,51.15
2022-08-19T10:22:03.929Z,49.99
2022-08-19T10:24:52.826Z,50.43
2022-08-19T10:27:51.355Z,49.53
2022-08-19T10:30:40.827Z,49.62
2022-08-19T10:33:38.882Z,50.88
2022-08-19T10:36:52.278Z,49.12
2022-08-19T10:39:48.029Z,48.86
2022-08-19T10:42:33.196Z,48.31
2022-08-19T10:45:22.938Z,48.31
2022-08-19T10:48:15.657Z,47.63
2022-08-19T10:51:22.744Z,47.79
2022-08-19T10:54:12.542Z,48.09
2022-08-19T10:57:01.916Z,48.88
2022-08-19T10:59:44.232Z,50.03
2022-08-19T11:02:32.921Z,49.39
2022-08-19T11:05:16.668Z,50.96
2022-08-19T11:08:23.176Z,51.14
2022-08-19T11:11:08.126Z,49.52
2022-08-19T11:13:58.927Z,49.44
2022-08-19T11:16:41.486Z,50.54
2022-08-19T11:19:31.928Z,49.57
2022-08-19T11:22:14.738Z,49.23
2022-08-19T11:25:07.913Z,49.89
2022-08-19T11:27:56.280Z,49.05
2022-08-19T11:30:37.909Z,49.52
2022-08-19T11:33:21.137Z,50.03
2022-08-19T11:36:09.907Z,49.66
2022-08-19T11:38:56.874Z,49.38
2022-08-19T11:41:45.882Z,50.36
2022-08-19T11:44:37.960Z,49.21
2022-08-19T11:47:20.956Z,49.49
2022-08-19T11:50:09.277Z,49.97
2022-08-19T11:52:52.834Z,49.25
2022-08-19T11:55:44.959Z,50.03
2022-08-19T11:58:27.927Z,49.49
2022-08-19T12:01:13.181Z,49.54
2022-08-19T12:04:05.812Z,50.62
2022-08-19T12:07:00.781Z,50.31
2022-08-19T12:09:55.825Z,50.67
2022-08-19T12:12:39.996Z,51.42
2022-08-19T12:15:29.967Z,50.98
2022-08-19T12:18:19.114Z,51.57
2022-08-19T12:21:08.926Z,52.55
2022-08-19T12:23:59.890Z,52.38
2022-08-19T12:26:53.316Z,52.11
2022-08-19T12:30:09.514Z,52.55
2022-08-19T12:32:51.890Z,53.03
2022-08-19T12:35:34.189Z,53.50
2022-08-19T12:38:23.819Z,53.29
2022-08-19T12:41:08.238Z,53.63
2022-08-19T12:43:57.923Z,54.29
2022-08-19T12:46:40.225Z,54.66
2022-08-19T12:49:54.671Z,54.44
2022-08-19T12:52:34.193Z,54.23
2022-08-19T12:55:22.900Z,53.64
2022-08-19T12:58:41.765Z,54.14
2022-08-19T13:01:42.793Z,53.54
2022-08-19T13:04:25.116Z,54.03
2022-08-19T13:07:13.945Z,53.29
2022-08-19T13:10:08.815Z,53.81
2022-08-19T13:12:59.973Z,54.16
2022-08-19T13:16:01.226Z,53.39
2022-08-19T13:18:51.829Z,52.98
2022-08-19T13:21:36.094Z,53.23
2022-08-19T13:24:31.360Z,52.65
2022-08-19T13:27:16.197Z,53.06
2022-08-19T13:30:22.944Z,52.83
2022-08-19T13:33:15.520Z,52.86
2022-08-19T13:36:09.915Z,52.59
2022-08-19T13:38:53.817Z,52.21
2022-08-19T13:41:42.906Z,52.28
2022-08-19T13:44:26.208Z,51.74
2022-08-19T13:47:15.839Z,52.11
2022-08-19T13:50:01.389Z,52.42
2022-08-19T13:52:49.904Z,53.47
2022-08-19T13:55:35.240Z,53.24
2022-08-19T13:58:23.961Z,52.89
2022-08-19T14:01:07.229Z,53.18
2022-08-19T14:04:14.877Z,53.70
2022-08-19T14:07:22.825Z,53.55
2022-08-19T14:10:39.914Z,53.48
2022-08-19T14:13:28.954Z,53.54
2022-08-19T14:16:38.948Z,53.83
2022-08-19T14:19:36.026Z,53.74
2022-08-19T14:22:50.047Z,55.05
2022-08-19T14:26:15.532Z,54.22
2022-08-19T14:29:23.965Z,54.19
2022-08-19T14:32:26.539Z,53.69
2022-08-19T14:35:36.077Z,53.13
2022-08-19T14:38:38.666Z,53.00
2022-08-19T14:41:46.858Z,54.35
2022-08-19T14:44:48.077Z,54.63
2022-08-19T14:47:56.113Z,54.15
2022-08-19T14:51:05.847Z,55.19
2022-08-19T14:54:12.917Z,54.86
2022-08-19T14:57:17.914Z,55.25
2022-08-19T15:00:26.838Z,54.71
2022-08-19T15:03:28.346Z,55.28
2022-08-19T15:06:36.924Z,55.18
2022-08-19T15:09:38.290Z,55.35
2022-08-19T15:12:26.952Z,55.35
2022-08-19T15:15:27.426Z,55.09
2022-08-19T15:18:20.834Z,55.82
2022-08-19T15:21:10.043Z,55.26
2022-08-19T15:23:57.230Z,54.88
2022-08-19T15:26:46.975Z,55.44
2022-08-19T15:29:29.664Z,55.42
2022-08-19T15:32:19.875Z,54.33
2022-08-19T15:35:10.266Z,56.31
2022-08-19T15:37:56.486Z,56.08
2022-08-19T15:40:45.981Z,55.91
2022-08-19T15:43:28.076Z,55.87
2022-08-19T15:46:20.003Z,56.24
2022-08-19T15:49:05.314Z,57.10
2022-08-19T15:51:55.919Z,56.19
2022-08-19T15:54:39.056Z,56.44
2022-08-19T15:57:30.948Z,56.59
2022-08-19T16:00:38.826Z,57.74
2022-08-19T16:03:41.946Z,57.37
2022-08-19T16:06:32.523Z,57.07
2022-08-19T16:09:16.369Z,56.41
2022-08-19T16:12:15.786Z,56.38
2022-08-19T16:15:13.584Z,57.06
2022-08-19T16:17:57.844Z,56.79
2022-08-19T16:20:46.988Z,56.92
2022-08-19T16:23:29.186Z,56.67
2022-08-19T16:26:17.993Z,57.08
2022-08-19T16:29:12.188Z,56.71
2022-08-19T16:31:57.944Z,57.56
2022-08-19T16:34:48.228Z,57.89
2022-08-19T16:37:30.793Z,57.18
2022-08-19T16:40:20.758Z,57.61
2022-08-19T16:43:03.981Z,57.71
2022-08-19T16:45:56.301Z,57.06
2022-08-19T16:48:40.865Z,57.83
2022-08-19T16:51:30.905Z,58.05
2022-08-19T16:54:14.286Z,57.68
2022-08-19T16:57:03.890Z,57.90
2022-08-19T16:59:52.913Z,58.52
2022-08-19T17:02:42.801Z,58.22
2022-08-19T17:05:31.926Z,57.32
2022-08-19T17:08:14.632Z,58.10
2022-08-19T17:11:17.622Z,57.46
2022-08-19T17:14:12.744Z,58.53
2022-08-19T17:17:07.897Z,58.59
2022-08-19T17:19:56.090Z,58.00
2022-08-19T17:22:37.929Z,58.82
2022-08-19T17:25:20.041Z,58.53
2022-08-19T17:28:09.815Z,58.91
2022-08-19T17:30:58.920Z,59.33
2022-08-19T17:33:42.207Z,59.39
2022-08-19T17:36:30.888Z,59.48
2022-08-19T17:39:13.360Z,59.46
2022-08-19T17:42:02.766Z,59.41
2022-08-19T17:44:51.916Z,58.92
2022-08-19T17:47:42.916Z,59.26
2022-08-19T17:50:28.355Z,59.17
2022-08-19T17:53:18.181Z,59.56
2022-08-19T17:56:06.796Z,59.70
2022-08-19T17:59:00.428Z,60.27
2022-08-19T18:01:54.140Z,59.91
2022-08-19T18:04:48.236Z,60.36
2022-08-19T18:07:37.888Z,60.41
2022-08-19T18:10:34.708Z,61.21
2022-08-19T18:13:23.922Z,60.72
2022-08-19T18:16:19.777Z,61.07
2022-08-19T18:19:14.801Z,60.11
2022-08-19T18:22:03.222Z,61.45
2022-08-19T18:24:49.976Z,61.37
2022-08-19T18:27:32.678Z,61.48
2022-08-19T18:30:22.950Z,61.48
2022-08-19T18:33:14.723Z,62.39
2022-08-19T18:36:04.911Z,61.34
2022-08-19T18:39:08.160Z,61.97
2022-08-19T18:42:14.842Z,62.41
2022-08-19T18:45:21.805Z,61.30
2022-08-19T18:48:27.731Z,60.97
2022-08-19T18:51:20.027Z,61.89
2022-08-19T18:54:10.797Z,61.47
2022-08-19T18:57:03.422Z,62.82
2022-08-19T18:59:48.545Z,62.81
2022-08-19T19:02:37.798Z,61.97
2022-08-19T19:05:26.807Z,62.48
2022-08-19T19:08:15.989Z,62.65
2022-08-19T19:10:59.978Z,61.96
2022-08-19T19:13:48.894Z,63.17
2022-08-19T19:16:31.213Z,62.50
2022-08-19T19:19:28.058Z,62.86
2022-08-19T19:22:26.783Z,62.54
2022-08-19T19:25:16.938Z,62.44
2022-08-19T19:28:05.963Z,62.42
2022-08-19T19:30:54.843Z,62.08
2022-08-19T19:33:43.908Z,62.25
2022-08-19T19:36:32.800Z,62.15
2022-08-19T19:39:44.769Z,62.00
2022-08-19T19:42:25.521Z,61.17
2022-08-19T19:45:14.950Z,61.39
2022-08-19T19:48:03.240Z,61.10
2022-08-19T19:50:44.887Z,61.49
2022-08-19T19:53:34.819Z,61.59
2022-08-19T19:56:23.880Z,62.19
2022-08-19T19:59:06.169Z,60.63
2022-08-19T20:01:54.905Z,61.01
2022-08-19T20:04:42.110Z,61.39
2022-08-19T20:07:50.977Z,60.74
2022-08-19T20:10:39.142Z,61.45
2022-08-19T20:13:24.901Z,61.70
2022-08-19T20:16:07.332Z,62.09
2022-08-19T20:18:57.069Z,61.86
2022-08-19T20:21:52.739Z,62.11
2022-08-19T20:24:43.862Z,62.27
2022-08-19T20:27:39.961Z,62.18
2022-08-19T20:30:29.802Z,62.41
2022-08-19T20:33:15.640Z,63.02
2022-08-19T20:36:04.833Z,61.91
2022-08-19T20:38:47.182Z,61.81
2022-08-19T20:41:35.806Z,63.45
2022-08-19T20:44:18.251Z,62.09
2022-08-19T20:47:06.931Z,62.42
2022-08-19T20:49:49.159Z,63.16
2022-08-19T20:52:37.955Z,63.25
2022-08-19T20:55:22.747Z,62.57
2022-08-19T20:58:11.884Z,63.84
2022-08-19T21:01:02.900Z,63.89
2022-08-19T21:03:52.772Z,63.69
2022-08-19T21:06:35.173Z,63.54
2022-08-19T21:09:23.757Z,63.61
2022-08-19T21:12:12.803Z,63.33
2022-08-19T21:15:01.046Z,64.04
2022-08-19T21:17:42.849Z,64.03
2022-08-19T21:20:31.861Z,63.56
2022-08-19T21:23:30.706Z,63.95
2022-08-19T21:26:19.865Z,64.48
2022-08-19T21:29:02.120Z,64.08
2022-08-19T21:31:50.919Z,63.53
2022-08-19T21:34:33.171Z,64.32
2022-08-19T21:37:25.167Z,63.84
2022-08-19T21:40:08.170Z,64.77
2022-08-19T21:42:56.857Z,63.81
2022-08-19T21:45:39.054Z,65.07
2022-08-19T21:48:27.906Z,64.30
2022-08-19T21:51:10.045Z,63.42
2022-08-19T21:53:58.849Z,64.36
2022-08-19T21:56:42.120Z,63.42
2022-08-19T21:59:30.914Z,63.12
2022-08-19T22:02:20.516Z,63.22
2022-08-19T22:05:09.895Z,63.60
2022-08-19T22:07:52.062Z,64.51
2022-08-19T22:10:42.789Z,64.03
2022-08-19T22:13:26.017Z,64.14
2022-08-19T22:16:14.832Z,62.72
2022-08-19T22:18:58.358Z,63.92
2022-08-19T22:21:46.873Z,63.85
2022-08-19T22:24:29.347Z,63.05
2022-08-19T22:27:17.844Z,63.01
2022-08-19T22:30:06.888Z,63.50
2022-08-19T22:32:56.318Z,63.78
2022-08-19T22:35:47.828Z,63.99
2022-08-19T22:38:30.034Z,63.16
2022-08-19T22:41:19.855Z,63.20
2022-08-19T22:44:02.231Z,62.51
2022-08-19T22:46:50.846Z,62.97
2022-08-19T22:49:33.038Z,63.37
2022-08-19T22:52:27.883Z,63.80
2022-08-19T22:55:10.232Z,63.48
2022-08-19T22:57:58.886Z,63.57
2022-08-19T23:00:47.166Z,63.12
2022-08-19T23:03:28.875Z,64.03
2022-08-19T23:06:11.609Z,63.81
2022-08-19T23:09:00.858Z,64.20
2022-08-19T23:11:49.136Z,64.29
2022-08-19T23:14:31.840Z,64.60
2022-08-19T23:17:20.699Z,64.84
2022-08-19T23:20:03.744Z,64.61
2022-08-19T23:23:01.865Z,64.48
2022-08-19T23:25:44.014Z,65.49
2022-08-19T23:28:52.947Z,65.27
2022-08-19T23:31:42.850Z,65.64
2022-08-19T23:34:31.239Z,66.67
2022-08-19T23:37:12.839Z,65.26
2022-08-19T23:40:01.348Z,66.16
2022-08-19T23:42:42.778Z,66.60
2022-08-19T23:45:26.972Z,65.78
2022-08-19T23:48:15.861Z,66.60
2022-08-19T23:50:59.267Z,65.60
2022-08-19T23:53:49.166Z,65.72
2022-08-19T23:56:37.868Z,66.45
2022-08-19T23:59:20.612Z,66.17
